sensor_id;sensor_type;location;lat;lon;timestamp;pressure;altitude;pressure_sealevel;temperature;humidity
13050;BME280;6591;51.446;5.404;2023-06-10T00:00:18;101037.66;;;29.15;31.54
13050;BME280;6591;51.446;5.404;2023-06-10T00:02:45;101039.03;;;29.11;31.68
13050;BME280;6591;51.446;5.404;2023-06-10T00:05:12;101040.47;;;29.07;31.43
13050;BME280;6591;51.446;5.404;2023-06-10T00:07:39;101043.56;;;29.04;32.03
13050;BME280;6591;51.446;5.404;2023-06-10T00:10:08;101039.47;;;29.00;31.89
13050;BME280;6591;51.446;5.404;2023-06-10T00:12:37;101043.44;;;28.97;31.50
13050;BME280;6591;51.446;5.404;2023-06-10T00:15:06;101046.75;;;28.93;32.11
13050;BME280;6591;51.446;5.404;2023-06-10T00:17:34;101047.94;;;28.90;31.88
13050;BME280;6591;51.446;5.404;2023-06-10T00:20:01;101051.22;;;28.86;31.44
13050;BME280;6591;51.446;5.404;2023-06-10T00:22:31;101044.44;;;28.82;32.07
13050;BME280;6591;51.446;5.404;2023-06-10T00:24:59;101044.13;;;28.77;32.30
13050;BME280;6591;51.446;5.404;2023-06-10T00:27:26;101045.53;;;28.73;31.95
13050;BME280;6591;51.446;5.404;2023-06-10T00:29:59;101047.94;;;28.68;32.12
13050;BME280;6591;51.446;5.404;2023-06-10T00:32:27;101051.03;;;28.64;32.06
13050;BME280;6591;51.446;5.404;2023-06-10T00:34:54;101045.25;;;28.59;32.13
13050;BME280;6591;51.446;5.404;2023-06-10T00:37:21;101045.41;;;28.58;32.38
13050;BME280;6591;51.446;5.404;2023-06-10T00:39:49;101048.91;;;28.52;32.55
13050;BME280;6591;51.446;5.404;2023-06-10T00:42:16;101050.09;;;28.49;32.28
13050;BME280;6591;51.446;5.404;2023-06-10T00:44:43;101050.66;;;28.45;32.69
13050;BME280;6591;51.446;5.404;2023-06-10T00:47:10;101049.09;;;28.42;32.66
13050;BME280;6591;51.446;5.404;2023-06-10T00:49:38;101047.97;;;28.37;32.68
13050;BME280;6591;51.446;5.404;2023-06-10T00:52:06;101043.88;;;28.33;32.83
13050;BME280;6591;51.446;5.404;2023-06-10T00:54:34;101048.88;;;28.29;32.58
13050;BME280;6591;51.446;5.404;2023-06-10T00:57:01;101047.53;;;28.25;32.98
13050;BME280;6591;51.446;5.404;2023-06-10T00:59:29;101047.22;;;28.20;32.71
13050;BME280;6591;51.446;5.404;2023-06-10T01:01:57;101048.56;;;28.16;32.75
13050;BME280;6591;51.446;5.404;2023-06-10T01:04:24;101043.63;;;28.11;32.74
13050;BME280;6591;51.446;5.404;2023-06-10T01:07:23;101048.28;;;28.03;33.43
13050;BME280;6591;51.446;5.404;2023-06-10T01:10:23;101045.09;;;27.91;32.89
13050;BME280;6591;51.446;5.404;2023-06-10T01:13:03;101042.56;;;27.90;33.45
13050;BME280;6591;51.446;5.404;2023-06-10T01:15:32;101035.56;;;27.87;33.02
13050;BME280;6591;51.446;5.404;2023-06-10T01:18:05;101044.44;;;27.81;33.52
13050;BME280;6591;51.446;5.404;2023-06-10T01:20:39;101052.16;;;27.77;33.18
13050;BME280;6591;51.446;5.404;2023-06-10T01:23:09;101051.81;;;27.72;33.48
13050;BME280;6591;51.446;5.404;2023-06-10T01:25:45;101044.31;;;27.66;33.90
13050;BME280;6591;51.446;5.404;2023-06-10T01:33:52;101038.56;;;27.45;33.66
13050;BME280;6591;51.446;5.404;2023-06-10T01:36:22;101053.56;;;27.41;33.73
13050;BME280;6591;51.446;5.404;2023-06-10T01:38:53;101047.94;;;27.34;33.54
13050;BME280;6591;51.446;5.404;2023-06-10T01:41:21;101048.31;;;27.31;34.08
13050;BME280;6591;51.446;5.404;2023-06-10T01:43:49;101048.13;;;27.25;34.22
13050;BME280;6591;51.446;5.404;2023-06-10T01:46:16;101049.84;;;27.18;34.03
13050;BME280;6591;51.446;5.404;2023-06-10T01:48:47;101052.22;;;27.13;33.85
13050;BME280;6591;51.446;5.404;2023-06-10T01:51:15;101051.25;;;27.06;34.17
13050;BME280;6591;51.446;5.404;2023-06-10T01:53:42;101057.38;;;27.00;34.50
13050;BME280;6591;51.446;5.404;2023-06-10T01:56:09;101058.03;;;26.93;34.32
13050;BME280;6591;51.446;5.404;2023-06-10T01:58:36;101052.53;;;26.85;34.89
13050;BME280;6591;51.446;5.404;2023-06-10T02:01:03;101054.25;;;26.78;34.46
13050;BME280;6591;51.446;5.404;2023-06-10T02:03:31;101059.38;;;26.73;34.79
13050;BME280;6591;51.446;5.404;2023-06-10T02:05:58;101060.19;;;26.66;34.92
13050;BME280;6591;51.446;5.404;2023-06-10T02:08:25;101058.84;;;26.62;34.66
13050;BME280;6591;51.446;5.404;2023-06-10T02:10:54;101056.78;;;26.55;34.60
13050;BME280;6591;51.446;5.404;2023-06-10T02:13:21;101059.16;;;26.50;34.84
13050;BME280;6591;51.446;5.404;2023-06-10T02:15:53;101062.38;;;26.46;35.11
13050;BME280;6591;51.446;5.404;2023-06-10T02:18:21;101055.56;;;26.42;35.06
13050;BME280;6591;51.446;5.404;2023-06-10T02:20:48;101056.06;;;26.37;34.86
13050;BME280;6591;51.446;5.404;2023-06-10T02:23:15;101050.28;;;26.32;35.35
13050;BME280;6591;51.446;5.404;2023-06-10T02:25:42;101067.28;;;26.26;34.89
13050;BME280;6591;51.446;5.404;2023-06-10T02:28:09;101063.31;;;26.21;35.27
13050;BME280;6591;51.446;5.404;2023-06-10T02:30:40;101069.41;;;26.14;35.50
13050;BME280;6591;51.446;5.404;2023-06-10T02:33:09;101067.03;;;26.11;35.51
13050;BME280;6591;51.446;5.404;2023-06-10T02:35:41;101069.38;;;26.06;35.34
13050;BME280;6591;51.446;5.404;2023-06-10T02:38:08;101070.72;;;26.02;35.89
13050;BME280;6591;51.446;5.404;2023-06-10T02:40:36;101066.63;;;25.98;35.38
13050;BME280;6591;51.446;5.404;2023-06-10T02:43:03;101059.94;;;25.93;35.61
13050;BME280;6591;51.446;5.404;2023-06-10T02:45:31;101059.44;;;25.89;35.56
13050;BME280;6591;51.446;5.404;2023-06-10T02:48:01;101071.81;;;25.84;36.02
13050;BME280;6591;51.446;5.404;2023-06-10T02:50:29;101071.31;;;25.80;36.20
13050;BME280;6591;51.446;5.404;2023-06-10T02:53:04;101064.81;;;25.73;36.10
13050;BME280;6591;51.446;5.404;2023-06-10T02:55:33;101068.88;;;25.69;36.37
13050;BME280;6591;51.446;5.404;2023-06-10T02:58:05;101072.91;;;25.65;36.34
13050;BME280;6591;51.446;5.404;2023-06-10T03:00:34;101067.94;;;25.60;36.58
13050;BME280;6591;51.446;5.404;2023-06-10T03:03:03;101071.84;;;25.58;36.60
13050;BME280;6591;51.446;5.404;2023-06-10T03:05:39;101075.03;;;25.53;36.57
13050;BME280;6591;51.446;5.404;2023-06-10T03:08:07;101074.47;;;25.50;36.87
13050;BME280;6591;51.446;5.404;2023-06-10T03:10:37;101076.81;;;25.45;36.63
13050;BME280;6591;51.446;5.404;2023-06-10T03:13:04;101075.28;;;25.42;37.00
13050;BME280;6591;51.446;5.404;2023-06-10T03:15:33;101066.75;;;25.37;37.11
13050;BME280;6591;51.446;5.404;2023-06-10T03:18:04;101071.66;;;25.33;37.29
13050;BME280;6591;51.446;5.404;2023-06-10T03:20:32;101068.41;;;25.30;37.65
13050;BME280;6591;51.446;5.404;2023-06-10T03:23:06;101073.31;;;25.26;37.34
13050;BME280;6591;51.446;5.404;2023-06-10T03:25:34;101079.06;;;25.23;37.41
13050;BME280;6591;51.446;5.404;2023-06-10T03:28:01;101080.25;;;25.21;37.41
13050;BME280;6591;51.446;5.404;2023-06-10T03:30:28;101087.53;;;25.20;37.41
13050;BME280;6591;51.446;5.404;2023-06-10T03:32:56;101084.97;;;25.19;37.55
13050;BME280;6591;51.446;5.404;2023-06-10T03:35:26;101088.88;;;25.16;37.56
13050;BME280;6591;51.446;5.404;2023-06-10T03:37:53;101083.59;;;25.15;37.63
13050;BME280;6591;51.446;5.404;2023-06-10T03:40:20;101082.88;;;25.13;37.55
13050;BME280;6591;51.446;5.404;2023-06-10T03:42:47;101087.78;;;25.09;37.98
13050;BME280;6591;51.446;5.404;2023-06-10T03:45:17;101093.06;;;25.11;37.92
13050;BME280;6591;51.446;5.404;2023-06-10T03:47:46;101099.66;;;25.08;37.89
13050;BME280;6591;51.446;5.404;2023-06-10T03:50:18;101094.22;;;25.08;37.75
13050;BME280;6591;51.446;5.404;2023-06-10T03:52:45;101093.53;;;25.06;38.20
13050;BME280;6591;51.446;5.404;2023-06-10T03:55:15;101102.56;;;25.07;37.80
13050;BME280;6591;51.446;5.404;2023-06-10T03:57:44;101105.28;;;25.07;38.11
13050;BME280;6591;51.446;5.404;2023-06-10T04:00:12;101096.41;;;25.05;38.22
13050;BME280;6591;51.446;5.404;2023-06-10T04:02:43;101104.41;;;25.06;38.32
13050;BME280;6591;51.446;5.404;2023-06-10T04:05:23;101101.84;;;25.05;38.04
13050;BME280;6591;51.446;5.404;2023-06-10T04:07:51;101097.28;;;25.05;38.44
13050;BME280;6591;51.446;5.404;2023-06-10T04:10:19;101104.41;;;25.06;38.64
13050;BME280;6591;51.446;5.404;2023-06-10T04:12:46;101103.38;;;25.07;38.54
13050;BME280;6591;51.446;5.404;2023-06-10T04:15:13;101097.13;;;25.07;38.87
13050;BME280;6591;51.446;5.404;2023-06-10T04:17:41;101094.06;;;25.10;38.95
13050;BME280;6591;51.446;5.404;2023-06-10T04:20:11;101102.09;;;25.11;38.77
13050;BME280;6591;51.446;5.404;2023-06-10T04:22:42;101101.91;;;25.13;38.76
13050;BME280;6591;51.446;5.404;2023-06-10T04:25:10;101109.91;;;25.14;38.87
13050;BME280;6591;51.446;5.404;2023-06-10T04:27:40;101110.63;;;25.16;39.15
13050;BME280;6591;51.446;5.404;2023-06-10T04:30:07;101121.16;;;25.19;39.35
13050;BME280;6591;51.446;5.404;2023-06-10T04:32:36;101119.16;;;25.21;39.23
13050;BME280;6591;51.446;5.404;2023-06-10T04:35:07;101117.97;;;25.24;39.07
13050;BME280;6591;51.446;5.404;2023-06-10T04:37:36;101113.09;;;25.27;39.15
13050;BME280;6591;51.446;5.404;2023-06-10T04:40:03;101118.19;;;25.30;39.54
13050;BME280;6591;51.446;5.404;2023-06-10T04:42:31;101117.88;;;25.33;39.50
13050;BME280;6591;51.446;5.404;2023-06-10T04:44:58;101124.72;;;25.38;39.62
13050;BME280;6591;51.446;5.404;2023-06-10T04:47:26;101121.53;;;25.42;39.30
13050;BME280;6591;51.446;5.404;2023-06-10T04:49:53;101120.03;;;25.48;39.34
13050;BME280;6591;51.446;5.404;2023-06-10T04:52:20;101119.56;;;25.52;39.43
13050;BME280;6591;51.446;5.404;2023-06-10T04:54:48;101121.97;;;25.55;39.21
13050;BME280;6591;51.446;5.404;2023-06-10T04:57:15;101123.06;;;25.62;39.42
13050;BME280;6591;51.446;5.404;2023-06-10T04:59:42;101119.84;;;25.67;39.27
13050;BME280;6591;51.446;5.404;2023-06-10T05:02:09;101121.94;;;25.73;39.21
13050;BME280;6591;51.446;5.404;2023-06-10T05:04:37;101124.19;;;25.78;39.44
13050;BME280;6591;51.446;5.404;2023-06-10T05:07:04;101126.25;;;25.84;39.09
13050;BME280;6591;51.446;5.404;2023-06-10T05:09:31;101126.47;;;25.90;39.52
13050;BME280;6591;51.446;5.404;2023-06-10T05:11:59;101124.13;;;25.95;39.21
13050;BME280;6591;51.446;5.404;2023-06-10T05:14:26;101127.03;;;26.02;39.41
13050;BME280;6591;51.446;5.404;2023-06-10T05:16:54;101119.91;;;26.09;39.17
13050;BME280;6591;51.446;5.404;2023-06-10T05:19:21;101119.28;;;26.15;39.45
13050;BME280;6591;51.446;5.404;2023-06-10T05:21:48;101123.91;;;26.23;39.24
13050;BME280;6591;51.446;5.404;2023-06-10T05:24:15;101124.13;;;26.29;39.19
13050;BME280;6591;51.446;5.404;2023-06-10T05:26:43;101123.31;;;26.37;39.03
13050;BME280;6591;51.446;5.404;2023-06-10T05:29:09;101117.03;;;26.44;39.14
13050;BME280;6591;51.446;5.404;2023-06-10T05:31:37;101122.31;;;26.54;38.79
13050;BME280;6591;51.446;5.404;2023-06-10T05:34:04;101123.88;;;26.65;38.70
13050;BME280;6591;51.446;5.404;2023-06-10T05:36:31;101121.03;;;26.74;38.62
13050;BME280;6591;51.446;5.404;2023-06-10T05:38:59;101125.00;;;26.88;38.95
13050;BME280;6591;51.446;5.404;2023-06-10T05:41:27;101117.50;;;26.98;38.61
13050;BME280;6591;51.446;5.404;2023-06-10T05:43:54;101120.75;;;27.10;38.65
13050;BME280;6591;51.446;5.404;2023-06-10T05:46:21;101125.88;;;27.21;38.71
13050;BME280;6591;51.446;5.404;2023-06-10T05:48:48;101122.81;;;27.32;38.34
13050;BME280;6591;51.446;5.404;2023-06-10T05:51:15;101125.16;;;27.43;38.28
13050;BME280;6591;51.446;5.404;2023-06-10T05:53:42;101126.94;;;27.52;38.34
13050;BME280;6591;51.446;5.404;2023-06-10T05:56:09;101129.31;;;27.63;37.90
13050;BME280;6591;51.446;5.404;2023-06-10T05:58:36;101127.41;;;27.72;37.53
13050;BME280;6591;51.446;5.404;2023-06-10T06:01:03;101124.31;;;27.83;37.81
13050;BME280;6591;51.446;5.404;2023-06-10T06:03:30;101132.97;;;27.95;37.48
13050;BME280;6591;51.446;5.404;2023-06-10T06:05:58;101129.69;;;28.07;37.53
13050;BME280;6591;51.446;5.404;2023-06-10T06:08:25;101129.34;;;28.18;37.38
13050;BME280;6591;51.446;5.404;2023-06-10T06:10:52;101126.38;;;28.28;36.92
13050;BME280;6591;51.446;5.404;2023-06-10T06:13:19;101124.28;;;28.38;36.83
13050;BME280;6591;51.446;5.404;2023-06-10T06:15:46;101124.91;;;28.48;36.83
13050;BME280;6591;51.446;5.404;2023-06-10T06:18:13;101126.22;;;28.60;36.53
13050;BME280;6591;51.446;5.404;2023-06-10T06:20:40;101122.94;;;28.73;36.49
13050;BME280;6591;51.446;5.404;2023-06-10T06:23:07;101124.03;;;28.87;36.33
13050;BME280;6591;51.446;5.404;2023-06-10T06:25:37;101126.66;;;29.03;36.39
13050;BME280;6591;51.446;5.404;2023-06-10T06:28:10;101133.41;;;29.15;36.07
13050;BME280;6591;51.446;5.404;2023-06-10T06:30:37;101131.94;;;29.27;36.22
13050;BME280;6591;51.446;5.404;2023-06-10T06:33:04;101137.19;;;29.37;36.05
13050;BME280;6591;51.446;5.404;2023-06-10T06:35:33;101136.44;;;29.43;35.49
13050;BME280;6591;51.446;5.404;2023-06-10T06:38:00;101138.44;;;29.49;35.50
13050;BME280;6591;51.446;5.404;2023-06-10T06:40:29;101144.03;;;29.56;35.30
13050;BME280;6591;51.446;5.404;2023-06-10T06:42:56;101142.91;;;29.65;35.29
13050;BME280;6591;51.446;5.404;2023-06-10T06:45:46;101144.06;;;29.85;35.54
13050;BME280;6591;51.446;5.404;2023-06-10T06:48:13;101141.19;;;30.01;34.93
13050;BME280;6591;51.446;5.404;2023-06-10T06:50:40;101141.19;;;30.16;34.74
13050;BME280;6591;51.446;5.404;2023-06-10T06:53:08;101145.34;;;30.26;34.73
13050;BME280;6591;51.446;5.404;2023-06-10T06:55:36;101148.84;;;30.35;34.32
13050;BME280;6591;51.446;5.404;2023-06-10T06:58:04;101146.16;;;30.42;34.10
13050;BME280;6591;51.446;5.404;2023-06-10T07:00:32;101149.88;;;30.49;33.98
13050;BME280;6591;51.446;5.404;2023-06-10T07:02:59;101137.75;;;30.58;34.05
13050;BME280;6591;51.446;5.404;2023-06-10T07:05:26;101140.44;;;30.72;34.17
13050;BME280;6591;51.446;5.404;2023-06-10T07:07:54;101152.03;;;30.89;33.50
13050;BME280;6591;51.446;5.404;2023-06-10T07:10:26;101146.16;;;31.07;33.60
13050;BME280;6591;51.446;5.404;2023-06-10T07:12:53;101148.91;;;31.28;33.77
13050;BME280;6591;51.446;5.404;2023-06-10T07:15:20;101153.50;;;31.49;33.17
13050;BME280;6591;51.446;5.404;2023-06-10T07:17:47;101152.78;;;31.62;32.45
13050;BME280;6591;51.446;5.404;2023-06-10T07:20:15;101159.25;;;31.75;32.84
13050;BME280;6591;51.446;5.404;2023-06-10T07:22:42;101156.19;;;31.91;32.28
13050;BME280;6591;51.446;5.404;2023-06-10T07:25:09;101160.31;;;32.09;32.29
13050;BME280;6591;51.446;5.404;2023-06-10T07:27:37;101151.13;;;32.23;32.13
13050;BME280;6591;51.446;5.404;2023-06-10T07:30:06;101153.94;;;32.36;31.36
13050;BME280;6591;51.446;5.404;2023-06-10T07:32:35;101151.88;;;32.51;31.40
13050;BME280;6591;51.446;5.404;2023-06-10T07:35:02;101160.03;;;32.66;31.40
13050;BME280;6591;51.446;5.404;2023-06-10T07:37:30;101155.41;;;32.79;31.03
13050;BME280;6591;51.446;5.404;2023-06-10T07:39:57;101157.97;;;32.88;31.33
13050;BME280;6591;51.446;5.404;2023-06-10T07:42:24;101163.91;;;32.98;30.94
13050;BME280;6591;51.446;5.404;2023-06-10T07:44:51;101158.25;;;33.06;30.56
13050;BME280;6591;51.446;5.404;2023-06-10T07:47:18;101163.16;;;33.17;30.41
13050;BME280;6591;51.446;5.404;2023-06-10T07:49:48;101163.81;;;33.32;30.85
13050;BME280;6591;51.446;5.404;2023-06-10T07:52:15;101167.22;;;33.54;30.29
13050;BME280;6591;51.446;5.404;2023-06-10T07:54:42;101172.75;;;33.80;29.75
13050;BME280;6591;51.446;5.404;2023-06-10T07:57:09;101167.22;;;34.07;29.59
13050;BME280;6591;51.446;5.404;2023-06-10T07:59:37;101170.78;;;34.33;28.76
13050;BME280;6591;51.446;5.404;2023-06-10T08:02:05;101159.41;;;34.55;28.46
13050;BME280;6591;51.446;5.404;2023-06-10T08:04:32;101164.88;;;34.68;28.11
13050;BME280;6591;51.446;5.404;2023-06-10T08:07:02;101158.06;;;34.77;28.11
13050;BME280;6591;51.446;5.404;2023-06-10T08:09:29;101157.16;;;34.90;27.86
13050;BME280;6591;51.446;5.404;2023-06-10T08:11:56;101163.41;;;35.10;28.37
13050;BME280;6591;51.446;5.404;2023-06-10T08:14:24;101161.75;;;35.34;27.71
13050;BME280;6591;51.446;5.404;2023-06-10T08:16:51;101157.56;;;35.56;27.39
13050;BME280;6591;51.446;5.404;2023-06-10T08:19:18;101159.09;;;35.77;27.07
13050;BME280;6591;51.446;5.404;2023-06-10T08:21:45;101151.91;;;35.94;26.57
13050;BME280;6591;51.446;5.404;2023-06-10T08:24:12;101158.47;;;35.99;25.75
13050;BME280;6591;51.446;5.404;2023-06-10T08:26:39;101160.59;;;35.97;25.58
13050;BME280;6591;51.446;5.404;2023-06-10T08:29:06;101158.72;;;35.91;25.65
13050;BME280;6591;51.446;5.404;2023-06-10T08:31:33;101162.59;;;35.90;25.98
13050;BME280;6591;51.446;5.404;2023-06-10T08:34:00;101162.75;;;35.95;25.99
13050;BME280;6591;51.446;5.404;2023-06-10T08:36:28;101159.69;;;36.03;25.53
13050;BME280;6591;51.446;5.404;2023-06-10T08:38:55;101161.91;;;36.13;25.61
13050;BME280;6591;51.446;5.404;2023-06-10T08:41:25;101153.72;;;36.25;25.16
13050;BME280;6591;51.446;5.404;2023-06-10T08:44:22;101166.19;;;36.34;25.55
13050;BME280;6591;51.446;5.404;2023-06-10T08:46:59;101164.63;;;36.56;25.00
13050;BME280;6591;51.446;5.404;2023-06-10T08:49:31;101162.03;;;36.79;25.20
13050;BME280;6591;51.446;5.404;2023-06-10T08:52:03;101158.88;;;37.06;24.69
13050;BME280;6591;51.446;5.404;2023-06-10T08:54:33;101161.22;;;37.32;24.95
13050;BME280;6591;51.446;5.404;2023-06-10T08:57:06;101159.63;;;37.54;24.51
13050;BME280;6591;51.446;5.404;2023-06-10T08:59:33;101163.03;;;37.68;23.84
13050;BME280;6591;51.446;5.404;2023-06-10T09:02:02;101161.09;;;37.80;23.63
13050;BME280;6591;51.446;5.404;2023-06-10T09:04:31;101163.13;;;37.96;23.60
13050;BME280;6591;51.446;5.404;2023-06-10T09:06:58;101164.97;;;38.14;23.20
13050;BME280;6591;51.446;5.404;2023-06-10T09:09:28;101149.59;;;38.35;22.79
13050;BME280;6591;51.446;5.404;2023-06-10T09:11:58;101154.38;;;38.63;22.73
13050;BME280;6591;51.446;5.404;2023-06-10T09:14:25;101154.28;;;38.86;22.83
13050;BME280;6591;51.446;5.404;2023-06-10T09:16:52;101164.03;;;39.00;22.22
13050;BME280;6591;51.446;5.404;2023-06-10T09:19:26;101146.50;;;38.99;21.92
13050;BME280;6591;51.446;5.404;2023-06-10T09:21:54;101154.59;;;39.01;22.12
13050;BME280;6591;51.446;5.404;2023-06-10T09:24:22;101149.50;;;39.10;21.63
13050;BME280;6591;51.446;5.404;2023-06-10T09:26:50;101153.88;;;39.22;21.75
13050;BME280;6591;51.446;5.404;2023-06-10T09:29:28;101161.50;;;39.44;21.98
13050;BME280;6591;51.446;5.404;2023-06-10T09:31:56;101155.84;;;39.72;21.59
13050;BME280;6591;51.446;5.404;2023-06-10T09:34:25;101154.66;;;40.01;21.18
13050;BME280;6591;51.446;5.404;2023-06-10T09:36:53;101155.03;;;40.27;21.25
13050;BME280;6591;51.446;5.404;2023-06-10T09:39:20;101152.13;;;40.38;20.66
13050;BME280;6591;51.446;5.404;2023-06-10T09:41:47;101156.00;;;40.37;20.25
13050;BME280;6591;51.446;5.404;2023-06-10T09:44:19;101149.53;;;40.32;20.35
13050;BME280;6591;51.446;5.404;2023-06-10T09:46:49;101148.81;;;40.19;20.22
13050;BME280;6591;51.446;5.404;2023-06-10T09:49:17;101153.03;;;40.05;20.42
13050;BME280;6591;51.446;5.404;2023-06-10T09:51:55;101145.00;;;39.87;20.39
13050;BME280;6591;51.446;5.404;2023-06-10T09:54:23;101147.84;;;39.92;20.64
13050;BME280;6591;51.446;5.404;2023-06-10T09:56:52;101138.00;;;40.06;20.46
13050;BME280;6591;51.446;5.404;2023-06-10T09:59:29;101140.25;;;40.26;20.32
13050;BME280;6591;51.446;5.404;2023-06-10T10:02:00;101136.31;;;40.44;20.05
13050;BME280;6591;51.446;5.404;2023-06-10T10:04:27;101135.84;;;40.52;19.91
13050;BME280;6591;51.446;5.404;2023-06-10T10:06:55;101139.22;;;40.54;19.82
13050;BME280;6591;51.446;5.404;2023-06-10T10:09:23;101146.16;;;40.51;19.48
13050;BME280;6591;51.446;5.404;2023-06-10T10:11:54;101138.25;;;40.43;19.44
13050;BME280;6591;51.446;5.404;2023-06-10T10:14:23;101128.41;;;40.36;19.27
13050;BME280;6591;51.446;5.404;2023-06-10T10:16:52;101128.81;;;40.22;19.35
13050;BME280;6591;51.446;5.404;2023-06-10T10:19:28;101133.47;;;40.00;19.32
13050;BME280;6591;51.446;5.404;2023-06-10T10:22:07;101126.59;;;39.86;19.53
13050;BME280;6591;51.446;5.404;2023-06-10T10:24:42;101129.84;;;39.78;20.05
13050;BME280;6591;51.446;5.404;2023-06-10T10:27:27;101129.84;;;39.78;20.02
13050;BME280;6591;51.446;5.404;2023-06-10T10:29:58;101135.19;;;39.85;19.79
13050;BME280;6591;51.446;5.404;2023-06-10T10:32:58;101129.56;;;39.79;19.98
13050;BME280;6591;51.446;5.404;2023-06-10T10:35:34;101132.47;;;39.90;20.21
13050;BME280;6591;51.446;5.404;2023-06-10T10:38:02;101130.69;;;40.00;19.81
13050;BME280;6591;51.446;5.404;2023-06-10T10:40:30;101130.75;;;40.05;20.02
13050;BME280;6591;51.446;5.404;2023-06-10T10:43:00;101125.53;;;40.09;19.54
13050;BME280;6591;51.446;5.404;2023-06-10T10:45:29;101116.91;;;40.10;19.85
13050;BME280;6591;51.446;5.404;2023-06-10T10:47:56;101128.13;;;40.15;19.72
13050;BME280;6591;51.446;5.404;2023-06-10T10:50:28;101125.31;;;40.15;19.66
13050;BME280;6591;51.446;5.404;2023-06-10T10:53:05;101126.16;;;40.16;19.55
13050;BME280;6591;51.446;5.404;2023-06-10T10:55:33;101128.56;;;40.24;19.93
13050;BME280;6591;51.446;5.404;2023-06-10T10:58:04;101123.97;;;40.35;19.55
13050;BME280;6591;51.446;5.404;2023-06-10T11:00:37;101114.28;;;40.42;19.51
13050;BME280;6591;51.446;5.404;2023-06-10T11:03:07;101111.31;;;40.49;19.26
13050;BME280;6591;51.446;5.404;2023-06-10T11:05:43;101110.78;;;40.52;19.19
13050;BME280;6591;51.446;5.404;2023-06-10T11:08:12;101124.19;;;40.55;18.90
13050;BME280;6591;51.446;5.404;2023-06-10T11:11:02;101114.09;;;40.49;18.88
13050;BME280;6591;51.446;5.404;2023-06-10T11:13:28;101107.31;;;40.40;18.96
13050;BME280;6591;51.446;5.404;2023-06-10T11:15:58;101109.75;;;40.36;18.88
13050;BME280;6591;51.446;5.404;2023-06-10T11:18:35;101110.16;;;40.45;19.10
13050;BME280;6591;51.446;5.404;2023-06-10T11:21:05;101104.63;;;40.72;18.90
13050;BME280;6591;51.446;5.404;2023-06-10T11:23:38;101094.03;;;41.00;18.71
13050;BME280;6591;51.446;5.404;2023-06-10T11:26:15;101103.72;;;41.20;18.63
13050;BME280;6591;51.446;5.404;2023-06-10T11:29:05;101105.53;;;41.36;18.68
13050;BME280;6591;51.446;5.404;2023-06-10T11:31:40;101100.13;;;41.56;17.80
13050;BME280;6591;51.446;5.404;2023-06-10T11:34:08;101098.53;;;41.65;18.00
13050;BME280;6591;51.446;5.404;2023-06-10T11:36:41;101100.75;;;41.68;17.29
13050;BME280;6591;51.446;5.404;2023-06-10T11:39:10;101097.47;;;41.71;17.60
13050;BME280;6591;51.446;5.404;2023-06-10T11:41:38;101095.53;;;41.77;17.56
13050;BME280;6591;51.446;5.404;2023-06-10T11:44:12;101088.81;;;41.78;17.57
13050;BME280;6591;51.446;5.404;2023-06-10T11:46:44;101085.75;;;41.79;17.13
13050;BME280;6591;51.446;5.404;2023-06-10T11:49:12;101091.34;;;41.79;17.63
13050;BME280;6591;51.446;5.404;2023-06-10T11:51:40;101089.16;;;41.86;17.14
13050;BME280;6591;51.446;5.404;2023-06-10T11:54:10;101086.97;;;41.89;16.73
13050;BME280;6591;51.446;5.404;2023-06-10T11:56:38;101087.53;;;41.91;17.07
13050;BME280;6591;51.446;5.404;2023-06-10T11:59:06;101080.00;;;41.91;16.32
13050;BME280;6591;51.446;5.404;2023-06-10T12:01:43;101084.22;;;41.99;16.33
13050;BME280;6591;51.446;5.404;2023-06-10T12:04:14;101075.41;;;42.27;16.72
13050;BME280;6591;51.446;5.404;2023-06-10T12:06:48;101072.72;;;42.62;16.35
13050;BME280;6591;51.446;5.404;2023-06-10T12:09:19;101070.56;;;43.00;16.64
13050;BME280;6591;51.446;5.404;2023-06-10T12:11:59;101067.25;;;43.33;16.15
13050;BME280;6591;51.446;5.404;2023-06-10T12:14:57;101070.03;;;43.59;15.57
13050;BME280;6591;51.446;5.404;2023-06-10T12:20:05;101064.59;;;43.98;15.56
13050;BME280;6591;51.446;5.404;2023-06-10T12:22:43;101071.25;;;44.17;15.42
13050;BME280;6591;51.446;5.404;2023-06-10T12:25:11;101066.47;;;44.22;15.30
13050;BME280;6591;51.446;5.404;2023-06-10T12:27:50;101063.06;;;44.36;15.10
13050;BME280;6591;51.446;5.404;2023-06-10T12:30:24;101069.09;;;44.58;15.01
13050;BME280;6591;51.446;5.404;2023-06-10T12:32:53;101065.13;;;44.64;14.78
13050;BME280;6591;51.446;5.404;2023-06-10T12:35:23;101066.50;;;44.71;14.73
13050;BME280;6591;51.446;5.404;2023-06-10T12:38:04;101060.56;;;44.78;14.30
13050;BME280;6591;51.446;5.404;2023-06-10T12:40:37;101061.06;;;44.85;14.52
13050;BME280;6591;51.446;5.404;2023-06-10T12:43:04;101069.09;;;44.97;14.35
13050;BME280;6591;51.446;5.404;2023-06-10T12:45:39;101067.09;;;45.02;14.28
13050;BME280;6591;51.446;5.404;2023-06-10T12:48:24;101059.06;;;44.91;13.60
13050;BME280;6591;51.446;5.404;2023-06-10T12:50:57;101066.09;;;44.88;14.01
13050;BME280;6591;51.446;5.404;2023-06-10T12:53:25;101062.41;;;44.93;13.70
13050;BME280;6591;51.446;5.404;2023-06-10T12:55:56;101055.38;;;44.95;13.81
13050;BME280;6591;51.446;5.404;2023-06-10T12:58:24;101064.59;;;45.01;13.71
13050;BME280;6591;51.446;5.404;2023-06-10T13:00:51;101053.88;;;45.08;13.47
13050;BME280;6591;51.446;5.404;2023-06-10T13:03:21;101049.28;;;45.22;13.66
13050;BME280;6591;51.446;5.404;2023-06-10T13:05:48;101058.72;;;45.31;13.48
13050;BME280;6591;51.446;5.404;2023-06-10T13:08:16;101048.06;;;45.28;13.08
13050;BME280;6591;51.446;5.404;2023-06-10T13:10:43;101052.13;;;45.17;13.30
13050;BME280;6591;51.446;5.404;2023-06-10T13:13:10;101051.41;;;45.01;13.02
13050;BME280;6591;51.446;5.404;2023-06-10T13:15:37;101047.50;;;44.97;13.52
13050;BME280;6591;51.446;5.404;2023-06-10T13:18:09;101046.31;;;45.08;13.34
13050;BME280;6591;51.446;5.404;2023-06-10T13:20:37;101032.41;;;45.27;13.63